Aeroporto :
LOGIN :

Iscrizione | Disclaimer

   EN    FR    IT 

 










Sommario :    VFR   VFR Marginale   IFR   IFR Intensivo   IFR Molto Intensivo
Visibilità : 
Base nubi : 
>= 8 km
>= 3000ft
5 / 8 km
1000 / 3000 ft
1500m / 5 km
500 / 1000 ft
800 / 1500m
200 / 500 ft
< 800m
< 200 ft
Simboli :   Temporali  Nebbia  Neve Forte  Precipitazioni Forti  Vento > 20 kt
SIGMETs :   Varie  Temporali  Ghiacco  Turbolenza  Onda orograficha  Ceneri Vulcaniche






- Altitudine del aeroporto : 53 ft
- Codice IATA : HAM


EDDH - Hamburg

ULTIMO METAR :
  • 161950Z 29017KT 260V320 5000 RA FEW007 BKN010 08/07 Q0996 TEMPO 29020G30KT 4000 BKN008

METARs OBSOLETI :
  • 161920Z 30022G33KT 8000 -RA SCT008 SCT014 BKN030 09/08 Q0995 RERA TEMPO 4500 RA BKN010
  • 161850Z 21029G41KT 9999 FEW040 BKN047 17/09 Q0990 BECMG 32020G40KT 2500 RA BKN010
  • 161820Z 21031G43KT 9999 SCT040 BKN047 17/09 Q0991 NOSIG
  • 161750Z 21028G48KT 9999 FEW035 BKN039 BKN049 16/09 Q0991 NOSIG
  • 161720Z 21029G42KT 9999 FEW035 BKN039 BKN048 16/08 Q0992 NOSIG

TAF TAF EDDH
Valido dal 16 a 18 ore il 18 a 00 ore UTC


161700Z 1618/1724 21025G40KT 9999 BKN030
TEMPO 1618/1620 23030G50KT
TEMPO 1619/1622 3500 RA BKN008
BECMG 1620/1623 25015G30KT
TEMPO 1623/1708 25020G35KT
BECMG 1708/1710 23020G35KT
TEMPO 1709/1715 23025G45KT
BECMG 1716/1719 22015G25KT



MetMap, La meteo Aeronautica in un colpo d'occhio ! - Copyright ORBIFLY Dicembre 2007 - Disclaimer

ORBIFLY MET'MAP TEAM :

Programmazione e sviluppo : Alexandra Zaïnal
Concezione : Baudouin d'Aumeries
Aiuto per la programmazione : Marc-Olivier Méhu
Supporto tecnico e logistico : Manuel Goepfert
Aiuto per la traduzione : Arnaldo La Scala

Contatto : metmap@orbifly.com




FONTI E CREDITI :

   NOAA